Time;durP1;ratioP1;P1;durP2;ratioP2;P2;SDS_P1;SDS_P2;PMS_P1;PMS_P2;Temp;Humidity;BMP_temperature;BMP_pressure;BME280_temperature;BME280_humidity;BME280_pressure;Samples;Min_cycle;Max_cycle;Signal;HPM_P1;HPM_P2
2023/06/05 00:02:07;;;;;;;1999.90;999.90;;;12.00;67.20;;;;;;5051814;28;20132;-89
2023/06/05 00:04:35;;;;;;;1999.90;999.90;;;12.00;67.80;;;;;;5034543;28;20037;-89
2023/06/05 00:07:02;;;;;;;1999.90;999.90;;;11.90;67.80;;;;;;5052669;28;20030;-88
2023/06/05 00:09:27;;;;;;;1999.90;999.90;;;11.90;67.50;;;;;;5037443;28;20332;-88
2023/06/05 00:11:53;;;;;;;1999.90;999.90;;;11.90;67.30;;;;;;5037666;28;20048;-89
2023/06/05 00:14:19;;;;;;;1999.90;999.90;;;12.00;67.20;;;;;;5034172;28;20025;-89
2023/06/05 00:16:44;;;;;;;1999.90;999.90;;;12.00;67.70;;;;;;5032484;28;20060;-89
2023/06/05 00:19:10;;;;;;;1999.90;999.90;;;11.90;67.90;;;;;;5039431;28;20037;-89
2023/06/05 00:21:36;;;;;;;1999.90;999.90;;;11.80;68.00;;;;;;5034788;28;20128;-89
2023/06/05 00:24:01;;;;;;;1999.90;999.90;;;11.90;67.00;;;;;;5041121;28;20033;-88
2023/06/05 00:26:27;;;;;;;1999.90;999.90;;;11.90;68.00;;;;;;5031376;28;20827;-89
2023/06/05 00:28:53;;;;;;;1999.90;999.90;;;12.10;66.30;;;;;;5031763;28;20045;-89
2023/06/05 00:31:21;;;;;;;1999.90;999.90;;;12.20;65.30;;;;;;5042069;28;20167;-89
2023/06/05 00:33:47;;;;;;;1999.90;999.90;;;12.40;64.70;;;;;;5036799;28;20029;-88
2023/06/05 00:36:13;;;;;;;1999.90;999.90;;;12.40;64.70;;;;;;5038766;28;20528;-89
2023/06/05 00:38:39;;;;;;;1999.90;999.90;;;12.30;64.60;;;;;;5048733;28;20033;-90
2023/06/05 00:41:05;;;;;;;1999.90;999.90;;;12.40;65.30;;;;;;5037139;28;20591;-89
2023/06/05 00:43:30;;;;;;;1999.90;999.90;;;12.20;66.20;;;;;;5039951;28;20029;-89
2023/06/05 00:46:02;;;;;;;1999.90;999.90;;;12.00;66.70;;;;;;5042272;28;20579;-89
2023/06/05 00:48:29;;;;;;;1999.90;999.90;;;11.90;67.60;;;;;;5041621;28;20044;-89
2023/06/05 00:50:56;;;;;;;1999.90;999.90;;;11.80;67.10;;;;;;5045649;28;20041;-89
2023/06/05 00:53:23;;;;;;;1999.90;999.90;;;11.80;67.30;;;;;;5042004;28;20076;-88
2023/06/05 00:55:49;;;;;;;1999.90;999.90;;;12.00;66.00;;;;;;5041332;28;20025;-88
2023/06/05 00:58:16;;;;;;;1999.90;999.90;;;11.90;66.40;;;;;;5026559;28;20036;-89
2023/06/05 01:00:42;;;;;;;1999.90;999.90;;;12.10;65.30;;;;;;5040458;28;20033;-88
2023/06/05 01:03:08;;;;;;;1999.90;999.90;;;12.10;66.40;;;;;;5036103;28;20087;-88
2023/06/05 01:05:36;;;;;;;1999.90;999.90;;;11.90;66.40;;;;;;5042739;28;20037;-88
2023/06/05 01:08:03;;;;;;;1999.90;999.90;;;11.80;66.90;;;;;;5040098;28;20523;-88
2023/06/05 01:10:30;;;;;;;1999.90;999.90;;;11.90;66.60;;;;;;5047127;28;20031;-88
2023/06/05 01:13:17;;;;;;;1999.90;999.90;;;11.90;66.20;;;;;;5041734;28;20029;-88
2023/06/05 01:15:43;;;;;;;1999.90;999.90;;;12.10;65.10;;;;;;5045321;28;20079;-89
2023/06/05 01:18:09;;;;;;;1999.90;999.90;;;12.30;64.80;;;;;;5045813;28;20039;-89
2023/06/05 01:20:36;;;;;;;1999.90;999.90;;;12.20;65.00;;;;;;5041933;28;20048;-89
2023/06/05 01:23:05;;;;;;;1999.90;999.90;;;11.90;66.10;;;;;;5042048;28;20053;-89
2023/06/05 01:25:32;;;;;;;1999.90;999.90;;;12.00;65.70;;;;;;5044421;28;20510;-87
2023/06/05 01:28:16;;;;;;;1999.90;999.90;;;12.00;65.40;;;;;;5046123;28;20043;-87
2023/06/05 01:30:53;;;;;;;1999.90;999.90;;;12.00;65.90;;;;;;5043575;28;20025;-88
2023/06/05 01:33:56;;;;;;;1999.90;999.90;;;12.00;66.00;;;;;;5040678;28;20052;-89
2023/06/05 01:36:23;;;;;;;1999.90;999.90;;;11.90;66.60;;;;;;5044757;28;20564;-88
2023/06/05 01:38:52;;;;;;;1999.90;999.90;;;11.80;66.50;;;;;;5024596;28;20400;-88
2023/06/05 01:41:19;;;;;;;1999.90;999.90;;;11.70;66.70;;;;;;5030646;28;20107;-88
2023/06/05 01:43:48;;;;;;;1999.90;999.90;;;11.70;67.30;;;;;;5032890;28;20022;-90
2023/06/05 01:46:17;;;;;;;1999.90;999.90;;;11.50;68.30;;;;;;5028874;28;20035;-89
2023/06/05 01:48:43;;;;;;;1999.90;999.90;;;11.40;68.60;;;;;;5033298;28;20051;-89
2023/06/05 01:51:09;;;;;;;1999.90;999.90;;;11.40;68.20;;;;;;5033136;28;20088;-89
2023/06/05 01:53:35;;;;;;;1999.90;999.90;;;11.40;68.00;;;;;;5033172;28;20033;-89
2023/06/05 01:56:02;;;;;;;1999.90;999.90;;;11.40;67.60;;;;;;5018938;28;20036;-88
2023/06/05 01:58:28;;;;;;;1999.90;999.90;;;11.40;67.70;;;;;;5034819;28;20026;-87
2023/06/05 02:00:56;;;;;;;1999.90;999.90;;;11.30;67.50;;;;;;5032466;28;20389;-88
2023/06/05 02:03:22;;;;;;;1999.90;999.90;;;11.30;67.60;;;;;;5032848;28;20113;-88
2023/06/05 02:05:49;;;;;;;1999.90;999.90;;;11.20;68.50;;;;;;5034708;28;20116;-88
2023/06/05 02:08:19;;;;;;;1999.90;999.90;;;11.20;69.30;;;;;;5035068;28;20033;-88
2023/06/05 02:10:46;;;;;;;1999.90;999.90;;;11.30;68.20;;;;;;5033808;28;20447;-89
2023/06/05 02:13:12;;;;;;;1999.90;999.90;;;11.30;68.30;;;;;;5034753;28;20080;-89
2023/06/05 02:15:38;;;;;;;1999.90;999.90;;;11.20;68.80;;;;;;5026465;28;20052;-88
2023/06/05 02:18:04;;;;;;;1999.90;999.90;;;11.10;69.10;;;;;;5036125;28;20033;-89
2023/06/05 02:20:30;;;;;;;1999.90;999.90;;;11.10;68.90;;;;;;5034565;28;20041;-89
2023/06/05 02:22:56;;;;;;;1999.90;999.90;;;11.10;68.70;;;;;;5029567;28;20038;-89
2023/06/05 02:25:25;;;;;;;1999.90;999.90;;;11.00;68.70;;;;;;5014212;28;20107;-89
2023/06/05 02:27:51;;;;;;;1999.90;999.90;;;11.00;69.30;;;;;;5034291;28;20029;-88
2023/06/05 02:30:17;;;;;;;1999.90;999.90;;;11.10;68.80;;;;;;5012382;28;20029;-89
2023/06/05 02:32:45;;;;;;;1999.90;999.90;;;11.20;68.20;;;;;;5027470;28;20029;-89
2023/06/05 02:35:13;;;;;;;1999.90;999.90;;;11.20;67.80;;;;;;5027222;28;20851;-88
2023/06/05 02:37:43;;;;;;;1999.90;999.90;;;11.10;69.20;;;;;;5033126;28;20033;-88
2023/06/05 02:40:12;;;;;;;1999.90;999.90;;;11.30;68.00;;;;;;5040649;28;20040;-88
2023/06/05 02:42:39;;;;;;;1999.90;999.90;;;11.20;68.10;;;;;;5037037;28;20066;-88
2023/06/05 02:45:05;;;;;;;1999.90;999.90;;;11.10;68.30;;;;;;5035922;28;20035;-89
2023/06/05 02:47:31;;;;;;;1999.90;999.90;;;11.20;67.60;;;;;;5036133;28;20032;-88
2023/06/05 02:50:00;;;;;;;1999.90;999.90;;;11.20;68.20;;;;;;5037958;28;20021;-89
2023/06/05 02:52:27;;;;;;;1999.90;999.90;;;11.00;68.80;;;;;;5037258;28;20032;-89
2023/06/05 02:54:53;;;;;;;1999.90;999.90;;;11.10;68.60;;;;;;5038620;28;20036;-89
2023/06/05 02:57:19;;;;;;;1999.90;999.90;;;11.00;69.40;;;;;;5034375;28;20026;-90
2023/06/05 02:59:45;;;;;;;1999.90;999.90;;;11.00;68.80;;;;;;5039418;28;20028;-89
2023/06/05 03:02:11;;;;;;;1999.90;999.90;;;11.00;69.30;;;;;;5033422;28;20040;-89
2023/06/05 03:04:40;;;;;;;1999.90;999.90;;;10.90;69.90;;;;;;5057444;28;20066;-89
2023/06/05 03:07:08;;;;;;;1999.90;999.90;;;11.00;69.00;;;;;;5062867;28;20081;-89
2023/06/05 03:09:33;;;;;;;1999.90;999.90;;;10.90;69.30;;;;;;5058349;28;20031;-89
2023/06/05 03:11:59;;;;;;;1999.90;999.90;;;10.90;69.10;;;;;;5060473;28;20032;-88
2023/06/05 03:14:26;;;;;;;1999.90;999.90;;;10.80;68.90;;;;;;5058481;28;20077;-88
2023/06/05 03:16:53;;;;;;;1999.90;999.90;;;10.90;68.40;;;;;;5057794;28;20032;-87
2023/06/05 03:19:19;;;;;;;1999.90;999.90;;;11.00;68.00;;;;;;5067094;28;20029;-88
2023/06/05 03:21:45;;;;;;;1999.90;999.90;;;10.90;69.10;;;;;;5059959;28;20029;-88
2023/06/05 03:24:14;;;;;;;1999.90;999.90;;;10.80;69.00;;;;;;5044576;28;20013;-88
2023/06/05 03:26:40;;;;;;;1999.90;999.90;;;10.80;69.40;;;;;;5060238;28;20048;-88
2023/06/05 03:29:07;;;;;;;1999.90;999.90;;;11.00;68.20;;;;;;5056707;28;20495;-87
2023/06/05 03:31:33;;;;;;;1999.90;999.90;;;11.00;68.30;;;;;;5053958;28;20040;-87
2023/06/05 03:33:59;;;;;;;1999.90;999.90;;;11.00;68.20;;;;;;5064376;28;20037;-88
2023/06/05 03:36:28;;;;;;;1999.90;999.90;;;11.00;68.00;;;;;;5054996;28;20013;-88
2023/06/05 03:38:54;;;;;;;1999.90;999.90;;;11.10;68.00;;;;;;5057628;28;20076;-87
2023/06/05 03:41:21;;;;;;;1999.90;999.90;;;11.00;68.40;;;;;;5055961;28;20040;-88
2023/06/05 03:43:47;;;;;;;1999.90;999.90;;;11.10;67.80;;;;;;5061508;28;20033;-89
2023/06/05 03:46:18;;;;;;;1999.90;999.90;;;11.00;68.30;;;;;;5064252;28;20034;-88
2023/06/05 03:48:44;;;;;;;1999.90;999.90;;;11.00;68.40;;;;;;5040756;28;20030;-88
2023/06/05 03:51:09;;;;;;;1999.90;999.90;;;11.00;67.60;;;;;;5032207;28;20033;-88
2023/06/05 03:53:39;;;;;;;1999.90;999.90;;;11.00;68.10;;;;;;5036502;28;20033;-88
2023/06/05 03:56:08;;;;;;;1999.90;999.90;;;11.10;67.70;;;;;;5034746;28;20029;-89
2023/06/05 03:58:34;;;;;;;1999.90;999.90;;;11.30;67.00;;;;;;5045994;28;20066;-89
2023/06/05 04:01:00;;;;;;;1999.90;999.90;;;11.40;67.20;;;;;;5034879;28;20116;-89
2023/06/05 04:03:27;;;;;;;1999.90;999.90;;;11.70;65.30;;;;;;5031004;28;20536;-88
2023/06/05 04:05:52;;;;;;;1999.90;999.90;;;11.80;65.50;;;;;;5041107;28;20463;-87
2023/06/05 04:08:18;;;;;;;1999.90;999.90;;;11.80;64.80;;;;;;5027964;28;20109;-87
2023/06/05 04:10:44;;;;;;;1999.90;999.90;;;11.90;64.50;;;;;;5037536;28;20401;-88
2023/06/05 04:13:09;;;;;;;1999.90;999.90;;;12.00;64.10;;;;;;5038713;28;20099;-88
2023/06/05 04:15:35;;;;;;;1999.90;999.90;;;12.00;63.80;;;;;;5033079;28;20389;-88
2023/06/05 04:18:01;;;;;;;1999.90;999.90;;;12.10;63.50;;;;;;5040905;28;20389;-88
2023/06/05 04:20:26;;;;;;;1999.90;999.90;;;12.10;63.70;;;;;;5033366;28;20048;-88
2023/06/05 04:22:52;;;;;;;1999.90;999.90;;;12.20;63.60;;;;;;5038866;28;20132;-88
2023/06/05 04:25:18;;;;;;;1999.90;999.90;;;12.20;63.70;;;;;;5038509;28;20045;-88
2023/06/05 04:27:45;;;;;;;1999.90;999.90;;;12.30;63.60;;;;;;5032495;28;20029;-87
2023/06/05 04:30:13;;;;;;;1999.90;999.90;;;12.30;63.00;;;;;;5039076;28;20111;-88
2023/06/05 04:32:39;;;;;;;1999.90;999.90;;;12.50;62.60;;;;;;5020908;28;20053;-87
2023/06/05 04:35:06;;;;;;;1999.90;999.90;;;12.40;63.20;;;;;;5035962;28;20029;-87
2023/06/05 04:37:32;;;;;;;1999.90;999.90;;;12.50;62.50;;;;;;5036623;28;20025;-87
2023/06/05 04:39:59;;;;;;;1999.90;999.90;;;12.50;63.10;;;;;;5034283;28;20025;-88
2023/06/05 04:42:25;;;;;;;1999.90;999.90;;;12.50;63.40;;;;;;5038178;28;20072;-89
2023/06/05 04:45:00;;;;;;;1999.90;999.90;;;12.50;62.50;;;;;;5037825;28;20034;-88
2023/06/05 04:47:26;;;;;;;1999.90;999.90;;;12.60;61.60;;;;;;5032967;28;20034;-88
2023/06/05 04:49:53;;;;;;;1999.90;999.90;;;12.70;62.10;;;;;;5019559;28;20042;-88
2023/06/05 04:52:20;;;;;;;1999.90;999.90;;;12.70;61.80;;;;;;5035099;28;20128;-87
2023/06/05 04:54:46;;;;;;;1999.90;999.90;;;12.70;62.60;;;;;;5033879;28;20017;-88
2023/06/05 04:57:12;;;;;;;1999.90;999.90;;;12.70;62.40;;;;;;5034154;28;20025;-87
2023/06/05 04:59:38;;;;;;;1999.90;999.90;;;12.90;62.30;;;;;;5035024;28;20102;-87
2023/06/05 05:02:04;;;;;;;1999.90;999.90;;;12.90;62.10;;;;;;5038186;28;20025;-88
2023/06/05 05:04:30;;;;;;;1999.90;999.90;;;13.00;61.70;;;;;;5035053;28;20508;-87
2023/06/05 05:07:01;;;;;;;1999.90;999.90;;;13.00;62.30;;;;;;5039078;28;20033;-87
2023/06/05 05:09:31;;;;;;;1999.90;999.90;;;13.10;62.20;;;;;;5039135;28;20036;-86
2023/06/05 05:11:58;;;;;;;1999.90;999.90;;;13.20;62.10;;;;;;5033903;28;20097;-87
2023/06/05 05:14:27;;;;;;;1999.90;999.90;;;13.20;61.40;;;;;;5037151;28;20040;-87
2023/06/05 05:16:53;;;;;;;1999.90;999.90;;;13.30;62.30;;;;;;5044384;28;20032;-86
2023/06/05 05:19:19;;;;;;;1999.90;999.90;;;13.30;62.70;;;;;;5022397;28;20029;-87
2023/06/05 05:21:47;;;;;;;1999.90;999.90;;;13.30;62.50;;;;;;5043046;28;20033;-87
2023/06/05 05:24:12;;;;;;;1999.90;999.90;;;13.40;62.10;;;;;;5041612;28;20037;-85
2023/06/05 05:26:39;;;;;;;1999.90;999.90;;;13.40;62.00;;;;;;5018724;28;20079;-88
2023/06/05 05:29:05;;;;;;;1999.90;999.90;;;13.40;61.70;;;;;;5036437;28;20041;-87
2023/06/05 05:31:31;;;;;;;1999.90;999.90;;;13.40;61.90;;;;;;5034302;28;20037;-87
2023/06/05 05:33:58;;;;;;;1999.90;999.90;;;13.50;61.30;;;;;;5040745;28;20397;-87
2023/06/05 05:36:24;;;;;;;1999.90;999.90;;;13.60;61.50;;;;;;5040384;28;20022;-86
2023/06/05 05:38:50;;;;;;;1999.90;999.90;;;13.60;62.10;;;;;;5037582;28;20501;-87
2023/06/05 05:41:16;;;;;;;1999.90;999.90;;;13.60;62.20;;;;;;5046593;28;20574;-87
2023/06/05 05:43:41;;;;;;;1999.90;999.90;;;13.80;61.60;;;;;;5019634;28;20045;-87
2023/06/05 05:46:07;;;;;;;1999.90;999.90;;;13.80;61.80;;;;;;5038138;28;20518;-86
2023/06/05 05:48:35;;;;;;;1999.90;999.90;;;13.80;61.60;;;;;;5039933;28;20029;-87
2023/06/05 05:51:01;;;;;;;1999.90;999.90;;;13.80;61.20;;;;;;5038097;28;20029;-88
2023/06/05 05:53:27;;;;;;;1999.90;999.90;;;13.70;63.40;;;;;;5032535;28;20038;-86
2023/06/05 05:55:53;;;;;;;1999.90;999.90;;;14.00;62.10;;;;;;5041504;28;20509;-87
2023/06/05 05:58:19;;;;;;;1999.90;999.90;;;14.10;62.40;;;;;;5035739;28;20112;-87
2023/06/05 06:00:46;;;;;;;1999.90;999.90;;;14.10;62.30;;;;;;5047470;28;20108;-85
2023/06/05 06:03:13;;;;;;;1999.90;999.90;;;14.20;62.40;;;;;;5040338;28;20033;-86
2023/06/05 06:05:39;;;;;;;1999.90;999.90;;;14.20;63.10;;;;;;5036349;28;20038;-86
2023/06/05 06:08:06;;;;;;;1999.90;999.90;;;14.40;62.10;;;;;;5043614;28;20414;-87
2023/06/05 06:10:32;;;;;;;1999.90;999.90;;;14.40;61.90;;;;;;5037357;28;20143;-87
2023/06/05 06:12:57;;;;;;;1999.90;999.90;;;14.50;62.20;;;;;;5042499;28;20048;-87
2023/06/05 06:15:23;;;;;;;1999.90;999.90;;;14.60;62.30;;;;;;5020872;28;20026;-86
2023/06/05 06:17:49;;;;;;;1999.90;999.90;;;14.70;61.90;;;;;;5035742;28;20037;-87
2023/06/05 06:20:15;;;;;;;1999.90;999.90;;;14.90;61.00;;;;;;5043024;28;20085;-86
2023/06/05 06:22:42;;;;;;;1999.90;999.90;;;14.90;61.60;;;;;;5036789;28;20500;-87
2023/06/05 06:25:11;;;;;;;1999.90;999.90;;;15.00;62.20;;;;;;5022242;28;20099;-87
2023/06/05 06:27:37;;;;;;;1999.90;999.90;;;15.20;61.80;;;;;;5032969;28;20133;-87
2023/06/05 06:30:03;;;;;;;1999.90;999.90;;;15.30;62.60;;;;;;5047730;28;20463;-87
2023/06/05 06:32:29;;;;;;;1999.90;999.90;;;15.50;62.50;;;;;;5043681;28;20066;-87
2023/06/05 06:34:55;;;;;;;1999.90;999.90;;;15.50;61.90;;;;;;5036699;28;20036;-86
2023/06/05 06:37:22;;;;;;;1999.90;999.90;;;15.50;60.80;;;;;;5030124;28;20111;-88
2023/06/05 06:39:48;;;;;;;1999.90;999.90;;;15.50;60.40;;;;;;5045096;28;20445;-87
2023/06/05 06:42:14;;;;;;;1999.90;999.90;;;15.60;60.80;;;;;;5034649;28;20371;-88
2023/06/05 06:44:40;;;;;;;1999.90;999.90;;;15.70;60.50;;;;;;5033318;28;20087;-88
2023/06/05 06:47:07;;;;;;;1999.90;999.90;;;15.80;62.10;;;;;;5037152;28;20038;-87
2023/06/05 06:49:35;;;;;;;1999.90;999.90;;;16.10;62.40;;;;;;5035710;28;20049;-89
2023/06/05 06:52:01;;;;;;;1999.90;999.90;;;16.20;60.70;;;;;;5029075;28;20025;-89
2023/06/05 06:54:28;;;;;;;1999.90;999.90;;;16.40;62.30;;;;;;5037898;28;20034;-89
2023/06/05 06:56:55;;;;;;;1999.90;999.90;;;16.40;60.20;;;;;;5031444;28;20030;-90
2023/06/05 06:59:21;;;;;;;1999.90;999.90;;;16.40;60.40;;;;;;5034422;28;20018;-90
2023/06/05 07:02:07;;;;;;;1999.90;999.90;;;16.50;60.60;;;;;;5034919;28;20480;-88
2023/06/05 07:04:33;;;;;;;1999.90;999.90;;;16.70;62.10;;;;;;5032966;28;20104;-87
2023/06/05 07:07:00;;;;;;;1999.90;999.90;;;17.00;60.40;;;;;;5039096;28;20085;-87
2023/06/05 07:09:26;;;;;;;1999.90;999.90;;;16.90;60.20;;;;;;5034528;28;20038;-87
2023/06/05 07:11:53;;;;;;;1999.90;999.90;;;16.90;58.90;;;;;;5037684;28;20040;-87
2023/06/05 07:14:19;;;;;;;1999.90;999.90;;;17.20;60.40;;;;;;5034769;28;20064;-88
2023/06/05 07:16:44;;;;;;;1999.90;999.90;;;17.30;60.70;;;;;;5031341;28;20064;-87
2023/06/05 07:19:10;;;;;;;1999.90;999.90;;;17.30;60.00;;;;;;5037499;28;20503;-87
2023/06/05 07:21:37;;;;;;;1999.90;999.90;;;17.30;59.50;;;;;;5032897;28;20050;-88
2023/06/05 07:24:04;;;;;;;1999.90;999.90;;;17.40;60.60;;;;;;5035238;28;20064;-87
2023/06/05 07:26:30;;;;;;;1999.90;999.90;;;17.50;59.60;;;;;;5036984;28;20128;-89
2023/06/05 07:28:55;;;;;;;1999.90;999.90;;;17.70;59.60;;;;;;5032550;28;20541;-85
2023/06/05 07:31:21;;;;;;;1999.90;999.90;;;17.90;59.60;;;;;;5043177;28;20041;-83
2023/06/05 07:33:47;;;;;;;1999.90;999.90;;;18.10;61.70;;;;;;5036283;28;20497;-83
2023/06/05 07:36:14;;;;;;;1999.90;999.90;;;18.30;58.70;;;;;;5031369;28;20120;-87
2023/06/05 07:38:40;;;;;;;1999.90;999.90;;;18.30;59.00;;;;;;5041282;28;20036;-88
2023/06/05 07:41:08;;;;;;;1999.90;999.90;;;18.50;58.50;;;;;;5038193;28;20021;-88
2023/06/05 07:43:34;;;;;;;1999.90;999.90;;;18.40;59.20;;;;;;5043142;28;20021;-87
2023/06/05 07:46:00;;;;;;;1999.90;999.90;;;18.40;59.10;;;;;;5040960;28;20503;-88
2023/06/05 07:48:26;;;;;;;1999.90;999.90;;;18.70;60.10;;;;;;5033131;28;20037;-86
2023/06/05 07:50:51;;;;;;;1999.90;999.90;;;18.90;60.20;;;;;;5039300;28;20105;-87
2023/06/05 07:53:17;;;;;;;1999.90;999.90;;;19.00;58.90;;;;;;5017089;28;20049;-87
2023/06/05 07:55:43;;;;;;;1999.90;999.90;;;18.80;58.20;;;;;;5016927;28;20029;-88
2023/06/05 07:58:08;;;;;;;1999.90;999.90;;;18.80;59.00;;;;;;5037568;28;20061;-87
2023/06/05 08:00:34;;;;;;;1999.90;999.90;;;19.10;60.00;;;;;;5034471;28;20100;-88
2023/06/05 08:03:00;;;;;;;1999.90;999.90;;;19.20;58.90;;;;;;5023242;28;20037;-88
2023/06/05 08:05:26;;;;;;;1999.90;999.90;;;19.40;59.50;;;;;;5038295;28;20056;-87
2023/06/05 08:07:51;;;;;;;1999.90;999.90;;;19.50;57.00;;;;;;5033914;28;20033;-88
2023/06/05 08:10:17;;;;;;;1999.90;999.90;;;19.30;57.10;;;;;;5038794;28;20562;-87
2023/06/05 08:12:43;;;;;;;1999.90;999.90;;;19.40;59.40;;;;;;5034737;28;20778;-88
2023/06/05 08:15:09;;;;;;;1999.90;999.90;;;19.70;58.40;;;;;;5034297;28;20414;-87
2023/06/05 08:17:34;;;;;;;1999.90;999.90;;;19.80;56.20;;;;;;5037104;28;20045;-86
2023/06/05 08:20:00;;;;;;;1999.90;999.90;;;20.00;57.20;;;;;;5032133;28;20061;-89
2023/06/05 08:22:28;;;;;;;1999.90;999.90;;;19.80;55.20;;;;;;5036977;28;20025;-86
2023/06/05 08:24:55;;;;;;;1999.90;999.90;;;19.90;56.80;;;;;;5036141;28;20036;-87
2023/06/05 08:27:21;;;;;;;1999.90;999.90;;;20.00;56.40;;;;;;5033000;28;20022;-86
2023/06/05 08:29:47;;;;;;;1999.90;999.90;;;20.30;55.50;;;;;;5033349;28;20038;-86
2023/06/05 08:32:13;;;;;;;1999.90;999.90;;;20.40;54.10;;;;;;5026220;28;20037;-86
2023/06/05 08:34:39;;;;;;;1999.90;999.90;;;20.80;56.00;;;;;;5034653;28;20043;-88
2023/06/05 08:37:05;;;;;;;1999.90;999.90;;;21.00;52.50;;;;;;5035321;28;20481;-86
2023/06/05 08:39:31;;;;;;;1999.90;999.90;;;20.70;53.70;;;;;;5033195;28;20472;-86
2023/06/05 08:42:00;;;;;;;1999.90;999.90;;;20.90;53.40;;;;;;5040662;28;20448;-87
2023/06/05 08:44:28;;;;;;;1999.90;999.90;;;20.90;51.40;;;;;;5034148;28;20116;-86
2023/06/05 08:47:02;;;;;;;1999.90;999.90;;;20.90;53.70;;;;;;5035739;28;20037;-86
2023/06/05 08:49:29;;;;;;;1999.90;999.90;;;21.20;53.30;;;;;;5033368;28;20082;-86
2023/06/05 08:52:00;;;;;;;1999.90;999.90;;;21.30;52.00;;;;;;5036833;28;20056;-86
2023/06/05 08:54:27;;;;;;;1999.90;999.90;;;21.40;49.80;;;;;;5041453;28;20026;-86
2023/06/05 08:56:52;;;;;;;1999.90;999.90;;;21.20;50.50;;;;;;5037859;28;20046;-88
2023/06/05 08:59:20;;;;;;;1999.90;999.90;;;21.40;52.50;;;;;;5039212;28;20408;-87
2023/06/05 09:01:49;;;;;;;1999.90;999.90;;;21.00;50.90;;;;;;5038272;28;20029;-87
2023/06/05 09:04:15;;;;;;;1999.90;999.90;;;21.30;51.30;;;;;;5034354;28;20052;-86
2023/06/05 09:06:46;;;;;;;1999.90;999.90;;;21.50;50.50;;;;;;5039215;28;20448;-85
2023/06/05 09:09:14;;;;;;;1999.90;999.90;;;21.60;50.00;;;;;;5041075;28;20033;-86
2023/06/05 09:11:39;;;;;;;1999.90;999.90;;;21.80;49.60;;;;;;5050512;28;20504;-86
2023/06/05 09:14:05;;;;;;;1999.90;999.90;;;22.20;48.80;;;;;;5036727;28;20025;-86
2023/06/05 09:16:37;;;;;;;1999.90;999.90;;;21.90;45.80;;;;;;5034618;28;20029;-86
2023/06/05 09:19:04;;;;;;;1999.90;999.90;;;22.20;47.10;;;;;;5039028;28;20400;-86
2023/06/05 09:21:31;;;;;;;1999.90;999.90;;;22.70;47.30;;;;;;5042286;28;20064;-86
2023/06/05 09:24:15;;;;;;;1999.90;999.90;;;22.80;45.70;;;;;;5019482;28;20034;-86
2023/06/05 09:26:56;;;;;;;1999.90;999.90;;;22.90;45.80;;;;;;5041486;28;20021;-88
2023/06/05 09:29:23;;;;;;;1999.90;999.90;;;22.60;45.50;;;;;;5034827;28;20080;-86
2023/06/05 09:31:50;;;;;;;1999.90;999.90;;;22.20;48.50;;;;;;5040635;28;20040;-88
2023/06/05 09:34:23;;;;;;;1999.90;999.90;;;22.10;45.70;;;;;;5042722;28;20930;-86
2023/06/05 09:36:49;;;;;;;1999.90;999.90;;;22.60;48.00;;;;;;5035381;28;20070;-85
2023/06/05 09:39:16;;;;;;;1999.90;999.90;;;22.90;46.70;;;;;;5041581;28;20706;-86
2023/06/05 09:41:48;;;;;;;1999.90;999.90;;;23.50;44.90;;;;;;5038135;28;20028;-86
2023/06/05 09:44:14;;;;;;;1999.90;999.90;;;23.00;43.00;;;;;;5033609;28;20029;-86
2023/06/05 09:46:57;;;;;;;1999.90;999.90;;;23.30;43.40;;;;;;5040311;28;20108;-86
2023/06/05 09:49:38;;;;;;;1999.90;999.90;;;23.80;43.60;;;;;;5050168;28;20025;-86
2023/06/05 09:52:04;;;;;;;1999.90;999.90;;;22.90;43.60;;;;;;5039481;28;20493;-86
2023/06/05 09:54:31;;;;;;;1999.90;999.90;;;22.40;47.20;;;;;;5039027;28;20101;-87
2023/06/05 09:57:00;;;;;;;1999.90;999.90;;;22.70;44.60;;;;;;5018430;28;20034;-85
2023/06/05 09:59:29;;;;;;;1999.90;999.90;;;23.30;41.70;;;;;;5020954;28;20482;-88
2023/06/05 10:01:56;;;;;;;1999.90;999.90;;;24.00;41.40;;;;;;5030519;28;20034;-86
2023/06/05 10:04:26;;;;;;;1999.90;999.90;;;24.60;42.30;;;;;;5039372;28;20033;-86
2023/06/05 10:06:54;;;;;;;1999.90;999.90;;;24.30;39.40;;;;;;5042557;28;20025;-84
2023/06/05 10:09:21;;;;;;;1999.90;999.90;;;23.10;40.30;;;;;;5030570;28;20412;-84
2023/06/05 10:11:50;;;;;;;1999.90;999.90;;;23.30;40.40;;;;;;5036076;28;20043;-85
2023/06/05 10:14:16;;;;;;;1999.90;999.90;;;24.10;39.80;;;;;;5035814;28;20038;-83
2023/06/05 10:16:44;;;;;;;1999.90;999.90;;;24.20;37.30;;;;;;5038708;28;20025;-84
2023/06/05 10:19:12;;;;;;;1999.90;999.90;;;24.10;38.60;;;;;;5028219;28;20536;-83
2023/06/05 10:21:38;;;;;;;1999.90;999.90;;;23.80;39.60;;;;;;5030485;28;20623;-84
2023/06/05 10:24:12;;;;;;;1999.90;999.90;;;23.80;39.50;;;;;;5036085;28;20032;-83
2023/06/05 10:27:15;;;;;;;1999.90;999.90;;;23.20;41.10;;;;;;5057706;28;20032;-84
2023/06/05 10:30:14;;;;;;;1999.90;999.90;;;23.90;38.80;;;;;;5038544;28;20120;-83
2023/06/05 10:33:19;;;;;;;1999.90;999.90;;;25.10;38.80;;;;;;5038511;28;20455;-83
2023/06/05 10:36:16;;;;;;;1999.90;999.90;;;25.00;34.70;;;;;;5031278;28;20025;-84
2023/06/05 10:38:44;;;;;;;1999.90;999.90;;;25.00;34.40;;;;;;5035051;28;20151;-84
2023/06/05 10:41:10;;;;;;;1999.90;999.90;;;25.00;36.10;;;;;;5033232;28;20029;-84
2023/06/05 10:43:47;;;;;;;1999.90;999.90;;;24.00;35.90;;;;;;5035780;28;20050;-85
2023/06/05 10:46:40;;;;;;;1999.90;999.90;;;24.00;37.70;;;;;;5035755;28;20401;-85
2023/06/05 10:49:22;;;;;;;1999.90;999.90;;;24.80;38.50;;;;;;5038296;28;20047;-86
2023/06/05 10:51:53;;;;;;;1999.90;999.90;;;25.00;35.60;;;;;;5038966;28;20119;-85
2023/06/05 10:54:22;;;;;;;1999.90;999.90;;;25.40;34.70;;;;;;5042433;28;20105;-85
2023/06/05 10:56:59;;;;;;;1999.90;999.90;;;25.60;32.50;;;;;;5040887;28;20805;-85
2023/06/05 10:59:36;;;;;;;1999.90;999.90;;;26.40;31.70;;;;;;5040967;28;20445;-84
2023/06/05 11:02:05;;;;;;;1999.90;999.90;;;26.50;32.30;;;;;;5034443;28;20576;-85
2023/06/05 11:04:48;;;;;;;1999.90;999.90;;;26.30;31.60;;;;;;5040448;28;20029;-84
2023/06/05 11:07:18;;;;;;;1999.90;999.90;;;25.30;31.30;;;;;;5035517;28;20033;-84
2023/06/05 11:10:02;;;;;;;1999.90;999.90;;;25.20;32.40;;;;;;5037119;28;20116;-85
2023/06/05 11:12:40;;;;;;;1999.90;999.90;;;25.40;32.80;;;;;;5035529;28;20033;-83
2023/06/05 11:15:07;;;;;;;1999.90;999.90;;;25.80;30.50;;;;;;5038366;28;20079;-83
2023/06/05 11:17:34;;;;;;;1999.90;999.90;;;26.20;29.90;;;;;;5037036;28;20022;-84
2023/06/05 11:20:04;;;;;;;1999.90;999.90;;;26.50;31.70;;;;;;5035481;28;20053;-83
2023/06/05 11:22:30;;;;;;;1999.90;999.90;;;26.10;29.50;;;;;;5030704;28;20037;-85
2023/06/05 11:25:15;;;;;;;1999.90;999.90;;;24.80;29.90;;;;;;5024186;28;20083;-85
2023/06/05 11:27:43;;;;;;;1999.90;999.90;;;25.70;29.80;;;;;;5032050;28;20441;-84
2023/06/05 11:30:16;;;;;;;1999.90;999.90;;;26.60;29.60;;;;;;5025256;28;20029;-84
2023/06/05 11:32:43;;;;;;;1999.90;999.90;;;26.80;28.80;;;;;;5034007;28;20033;-83
2023/06/05 11:35:09;;;;;;;1999.90;999.90;;;27.20;28.00;;;;;;5045935;28;20025;-84
2023/06/05 11:37:37;;;;;;;1999.90;999.90;;;27.30;27.30;;;;;;5039507;28;20029;-85
2023/06/05 11:40:10;;;;;;;1999.90;999.90;;;28.10;29.10;;;;;;5012699;28;20029;-85
2023/06/05 11:42:38;;;;;;;1999.90;999.90;;;28.80;28.50;;;;;;5032787;28;20033;-84
2023/06/05 11:45:13;;;;;;;1999.90;999.90;;;29.00;28.10;;;;;;5027588;28;20017;-86
2023/06/05 11:47:39;;;;;;;1999.90;999.90;;;29.10;25.80;;;;;;5037301;28;20028;-84
2023/06/05 11:50:12;;;;;;;1999.90;999.90;;;29.60;25.40;;;;;;5040224;28;20030;-85
2023/06/05 11:52:39;;;;;;;1999.90;999.90;;;29.90;26.00;;;;;;5028020;28;20018;-85
2023/06/05 11:55:22;;;;;;;1999.90;999.90;;;30.60;23.70;;;;;;5034624;28;20025;-85
2023/06/05 11:57:49;;;;;;;1999.90;999.90;;;30.20;24.60;;;;;;5029133;28;20375;-84
2023/06/05 12:00:22;;;;;;;1999.90;999.90;;;30.00;24.10;;;;;;5037264;28;20028;-84
2023/06/05 12:02:48;;;;;;;1999.90;999.90;;;30.40;25.40;;;;;;5037072;28;20032;-83
2023/06/05 12:05:14;;;;;;;1999.90;999.90;;;30.10;25.70;;;;;;5032301;28;20028;-85